sensor_id;sensor_type;location;lat;lon;timestamp;temperature;humidity
12870;DHT22;6503;48.572;13.460;2022-10-16T00:01:15;13.50;99.90
12870;DHT22;6503;48.572;13.460;2022-10-16T00:03:44;13.50;99.90
12870;DHT22;6503;48.572;13.460;2022-10-16T00:06:11;13.50;99.90
12870;DHT22;6503;48.572;13.460;2022-10-16T00:08:39;13.50;99.90
12870;DHT22;6503;48.572;13.460;2022-10-16T00:11:10;13.40;99.90
12870;DHT22;6503;48.572;13.460;2022-10-16T00:13:37;13.40;99.90
12870;DHT22;6503;48.572;13.460;2022-10-16T00:16:05;13.40;99.90
12870;DHT22;6503;48.572;13.460;2022-10-16T00:18:32;13.40;99.90
12870;DHT22;6503;48.572;13.460;2022-10-16T00:21:02;13.40;99.90
12870;DHT22;6503;48.572;13.460;2022-10-16T00:23:29;13.30;99.90
12870;DHT22;6503;48.572;13.460;2022-10-16T00:25:58;13.30;99.90
12870;DHT22;6503;48.572;13.460;2022-10-16T00:28:26;13.30;99.90
12870;DHT22;6503;48.572;13.460;2022-10-16T00:30:53;13.40;99.90
12870;DHT22;6503;48.572;13.460;2022-10-16T00:33:20;13.40;99.90
12870;DHT22;6503;48.572;13.460;2022-10-16T00:35:47;13.40;99.90
12870;DHT22;6503;48.572;13.460;2022-10-16T00:38:14;13.40;99.90
12870;DHT22;6503;48.572;13.460;2022-10-16T00:40:41;13.40;99.90
12870;DHT22;6503;48.572;13.460;2022-10-16T00:43:13;13.40;99.90
12870;DHT22;6503;48.572;13.460;2022-10-16T00:45:42;13.40;99.90
12870;DHT22;6503;48.572;13.460;2022-10-16T00:48:12;13.40;99.90
12870;DHT22;6503;48.572;13.460;2022-10-16T00:50:40;13.40;99.90
12870;DHT22;6503;48.572;13.460;2022-10-16T00:53:09;13.40;99.90
12870;DHT22;6503;48.572;13.460;2022-10-16T00:55:36;13.40;99.90
12870;DHT22;6503;48.572;13.460;2022-10-16T00:58:03;13.40;99.90
12870;DHT22;6503;48.572;13.460;2022-10-16T01:00:30;13.50;99.90
12870;DHT22;6503;48.572;13.460;2022-10-16T01:03:00;13.40;99.90
12870;DHT22;6503;48.572;13.460;2022-10-16T01:05:32;13.40;99.90
12870;DHT22;6503;48.572;13.460;2022-10-16T01:08:08;13.30;99.90
12870;DHT22;6503;48.572;13.460;2022-10-16T01:10:40;13.30;99.90
12870;DHT22;6503;48.572;13.460;2022-10-16T01:13:10;13.30;99.90
12870;DHT22;6503;48.572;13.460;2022-10-16T01:15:41;13.30;99.90
12870;DHT22;6503;48.572;13.460;2022-10-16T01:18:16;13.30;99.90
12870;DHT22;6503;48.572;13.460;2022-10-16T01:20:46;13.30;99.90
12870;DHT22;6503;48.572;13.460;2022-10-16T01:23:27;13.30;99.90
12870;DHT22;6503;48.572;13.460;2022-10-16T01:26:10;13.30;99.90
12870;DHT22;6503;48.572;13.460;2022-10-16T01:28:44;13.30;99.90
12870;DHT22;6503;48.572;13.460;2022-10-16T01:31:15;13.30;99.90
12870;DHT22;6503;48.572;13.460;2022-10-16T01:33:45;13.30;99.90
12870;DHT22;6503;48.572;13.460;2022-10-16T01:36:14;13.30;99.90
12870;DHT22;6503;48.572;13.460;2022-10-16T01:38:43;13.30;99.90
12870;DHT22;6503;48.572;13.460;2022-10-16T01:41:15;13.30;99.90
12870;DHT22;6503;48.572;13.460;2022-10-16T01:43:48;13.30;99.90
12870;DHT22;6503;48.572;13.460;2022-10-16T01:46:19;13.30;99.90
12870;DHT22;6503;48.572;13.460;2022-10-16T01:48:47;13.30;99.90
12870;DHT22;6503;48.572;13.460;2022-10-16T01:51:15;13.30;99.90
12870;DHT22;6503;48.572;13.460;2022-10-16T01:53:46;13.40;99.90
12870;DHT22;6503;48.572;13.460;2022-10-16T01:56:16;13.30;99.90
12870;DHT22;6503;48.572;13.460;2022-10-16T01:58:48;13.30;99.90
12870;DHT22;6503;48.572;13.460;2022-10-16T02:01:18;13.30;99.90
12870;DHT22;6503;48.572;13.460;2022-10-16T02:03:48;13.20;99.90
12870;DHT22;6503;48.572;13.460;2022-10-16T02:06:17;13.10;99.90
12870;DHT22;6503;48.572;13.460;2022-10-16T02:08:45;13.20;99.90
12870;DHT22;6503;48.572;13.460;2022-10-16T02:11:12;13.10;99.90
12870;DHT22;6503;48.572;13.460;2022-10-16T02:13:43;13.10;99.90
12870;DHT22;6503;48.572;13.460;2022-10-16T02:16:13;13.10;99.90
12870;DHT22;6503;48.572;13.460;2022-10-16T02:18:41;13.20;99.90
12870;DHT22;6503;48.572;13.460;2022-10-16T02:21:13;13.10;99.90
12870;DHT22;6503;48.572;13.460;2022-10-16T02:23:51;13.10;99.90
12870;DHT22;6503;48.572;13.460;2022-10-16T02:26:27;13.10;99.90
12870;DHT22;6503;48.572;13.460;2022-10-16T02:28:59;13.10;99.90
12870;DHT22;6503;48.572;13.460;2022-10-16T02:31:29;13.10;99.90
12870;DHT22;6503;48.572;13.460;2022-10-16T02:34:01;13.10;99.90
12870;DHT22;6503;48.572;13.460;2022-10-16T02:36:31;13.10;99.90
12870;DHT22;6503;48.572;13.460;2022-10-16T02:39:00;13.10;99.90
12870;DHT22;6503;48.572;13.460;2022-10-16T02:41:30;13.10;99.90
12870;DHT22;6503;48.572;13.460;2022-10-16T02:43:57;13.10;99.90
12870;DHT22;6503;48.572;13.460;2022-10-16T02:46:24;13.10;99.90
12870;DHT22;6503;48.572;13.460;2022-10-16T02:48:52;13.10;99.90
12870;DHT22;6503;48.572;13.460;2022-10-16T02:51:19;13.10;99.90
12870;DHT22;6503;48.572;13.460;2022-10-16T02:53:46;13.00;99.90
12870;DHT22;6503;48.572;13.460;2022-10-16T02:56:12;13.10;99.90
12870;DHT22;6503;48.572;13.460;2022-10-16T02:58:39;13.10;99.90
12870;DHT22;6503;48.572;13.460;2022-10-16T03:01:06;13.10;99.90
12870;DHT22;6503;48.572;13.460;2022-10-16T03:03:33;13.00;99.90
12870;DHT22;6503;48.572;13.460;2022-10-16T03:06:01;12.90;99.90
12870;DHT22;6503;48.572;13.460;2022-10-16T03:08:28;13.00;99.90
12870;DHT22;6503;48.572;13.460;2022-10-16T03:10:54;12.90;99.90
12870;DHT22;6503;48.572;13.460;2022-10-16T03:13:21;12.90;99.90
12870;DHT22;6503;48.572;13.460;2022-10-16T03:15:48;12.90;99.90
12870;DHT22;6503;48.572;13.460;2022-10-16T03:18:15;12.90;99.90
12870;DHT22;6503;48.572;13.460;2022-10-16T03:20:42;12.90;99.90
12870;DHT22;6503;48.572;13.460;2022-10-16T03:23:11;12.90;99.90
12870;DHT22;6503;48.572;13.460;2022-10-16T03:25:37;12.90;99.90
12870;DHT22;6503;48.572;13.460;2022-10-16T03:28:04;12.90;99.90
12870;DHT22;6503;48.572;13.460;2022-10-16T03:30:32;12.90;99.90
12870;DHT22;6503;48.572;13.460;2022-10-16T03:32:58;12.90;99.90
12870;DHT22;6503;48.572;13.460;2022-10-16T03:35:25;13.00;99.90
12870;DHT22;6503;48.572;13.460;2022-10-16T03:37:52;12.90;99.90
12870;DHT22;6503;48.572;13.460;2022-10-16T03:40:20;12.90;99.90
12870;DHT22;6503;48.572;13.460;2022-10-16T03:42:47;12.90;99.90
12870;DHT22;6503;48.572;13.460;2022-10-16T03:45:14;12.90;99.90
12870;DHT22;6503;48.572;13.460;2022-10-16T03:47:41;12.90;99.90
12870;DHT22;6503;48.572;13.460;2022-10-16T03:50:08;12.90;99.90
12870;DHT22;6503;48.572;13.460;2022-10-16T03:52:36;12.80;99.90
